createdAt,value
2018-10-19T00:00:55.257Z,11.80
2018-10-19T00:01:55.233Z,11.82
2018-10-19T00:02:56.728Z,11.82
2018-10-19T00:03:55.193Z,11.80
2018-10-19T00:04:55.176Z,11.68
2018-10-19T00:05:55.143Z,11.80
2018-10-19T00:06:55.119Z,11.77
2018-10-19T00:07:55.096Z,11.64
2018-10-19T00:08:55.084Z,11.64
2018-10-19T00:09:55.051Z,11.64
2018-10-19T00:10:55.080Z,11.68
2018-10-19T00:11:55.005Z,11.72
2018-10-19T00:12:55.058Z,11.74
2018-10-19T00:13:54.960Z,11.67
2018-10-19T00:14:54.955Z,11.75
2018-10-19T00:15:54.914Z,11.68
2018-10-19T00:16:54.928Z,11.75
2018-10-19T00:17:54.867Z,11.72
2018-10-19T00:18:54.844Z,11.70
2018-10-19T00:19:57.075Z,11.68
2018-10-19T00:20:54.831Z,11.70
2018-10-19T00:21:54.775Z,11.64
2018-10-19T00:22:54.784Z,11.64
2018-10-19T00:23:54.729Z,11.62
2018-10-19T00:24:54.709Z,11.61
2018-10-19T00:25:54.683Z,11.52
2018-10-19T00:26:54.702Z,11.44
2018-10-19T00:27:54.637Z,11.35
2018-10-19T00:28:54.668Z,11.28
2018-10-19T00:29:54.591Z,11.21
2018-10-19T00:30:54.568Z,11.17
2018-10-19T00:31:54.548Z,11.14
2018-10-19T00:32:54.534Z,11.11
2018-10-19T00:33:54.499Z,11.11
2018-10-19T00:34:54.507Z,11.13
2018-10-19T00:35:54.452Z,11.03
2018-10-19T00:36:54.496Z,11.11
2018-10-19T00:37:54.406Z,11.03
2018-10-19T00:38:54.389Z,10.92
2018-10-19T00:39:54.362Z,10.94
2018-10-19T00:40:54.389Z,10.99
2018-10-19T00:41:54.313Z,11.09
2018-10-19T00:42:54.296Z,11.09
2018-10-19T00:43:54.267Z,11.09
2018-10-19T00:44:54.287Z,11.19
2018-10-19T00:45:54.221Z,11.19
2018-10-19T00:46:54.220Z,11.25
2018-10-19T00:47:54.178Z,11.25
2018-10-19T00:48:54.154Z,11.19
2018-10-19T00:49:54.128Z,11.25
2018-10-19T00:50:54.106Z,11.28
2018-10-19T00:51:54.082Z,11.34
2018-10-19T00:52:54.111Z,11.19
2018-10-19T00:53:54.034Z,11.24
2018-10-19T00:54:54.011Z,11.16
2018-10-19T00:55:53.988Z,11.13
2018-10-19T00:56:53.967Z,11.11
2018-10-19T00:57:56.192Z,10.91
2018-10-19T00:58:53.973Z,11.01
2018-10-19T00:59:53.895Z,10.95
2018-10-19T01:00:53.871Z,10.99
2018-10-19T01:01:53.847Z,10.98
2018-10-19T01:02:53.873Z,11.01
2018-10-19T01:03:54.551Z,10.95
2018-10-19T01:04:53.780Z,11.07
2018-10-19T01:05:53.753Z,11.11
2018-10-19T01:06:53.731Z,11.07
2018-10-19T01:07:53.710Z,11.09
2018-10-19T01:08:53.732Z,11.07
2018-10-19T01:09:53.660Z,11.07
2018-10-19T01:10:53.641Z,11.11
2018-10-19T01:11:53.616Z,11.14
2018-10-19T01:12:53.592Z,11.09
2018-10-19T01:13:53.568Z,11.16
2018-10-19T01:14:53.566Z,11.13
2018-10-19T01:15:53.521Z,11.16
2018-10-19T01:16:53.557Z,11.20
2018-10-19T01:17:53.474Z,11.20
2018-10-19T01:18:53.450Z,11.19
2018-10-19T01:19:54.179Z,11.24
2018-10-19T01:20:53.450Z,11.35
2018-10-19T01:21:53.380Z,11.35
2018-10-19T01:22:53.360Z,11.39
2018-10-19T01:23:53.333Z,11.39
2018-10-19T01:24:53.309Z,11.44
2018-10-19T01:25:53.286Z,11.38
2018-10-19T01:26:53.273Z,11.43
2018-10-19T01:27:53.239Z,11.44
2018-10-19T01:28:53.220Z,11.56
2018-10-19T01:29:53.192Z,11.57
2018-10-19T01:30:53.168Z,11.64
2018-10-19T01:31:53.146Z,11.65
2018-10-19T01:32:53.165Z,11.72
2018-10-19T01:33:53.098Z,11.53
2018-10-19T01:34:53.076Z,11.61
2018-10-19T01:35:53.051Z,11.61
2018-10-19T01:36:53.029Z,11.67
2018-10-19T01:37:53.005Z,11.64
2018-10-19T01:38:52.983Z,11.74
2018-10-19T01:39:52.960Z,11.61
2018-10-19T01:40:52.938Z,11.77
2018-10-19T01:41:52.911Z,11.71
2018-10-19T01:42:52.897Z,11.68
2018-10-19T01:43:52.864Z,11.75
2018-10-19T01:44:52.880Z,11.71
2018-10-19T01:45:52.816Z,11.78
2018-10-19T01:46:52.801Z,11.70
2018-10-19T01:47:52.777Z,11.71
2018-10-19T01:48:52.748Z,11.72
2018-10-19T01:49:52.725Z,11.71
2018-10-19T01:50:52.726Z,11.80
2018-10-19T01:51:52.678Z,11.70
2018-10-19T01:52:52.657Z,11.67
2018-10-19T01:53:52.631Z,11.65
2018-10-19T01:54:52.606Z,11.68
2018-10-19T01:55:52.583Z,11.61
2018-10-19T01:56:52.584Z,11.59
2018-10-19T01:57:52.536Z,11.54
2018-10-19T01:58:52.515Z,11.52
2018-10-19T01:59:52.491Z,11.53
2018-10-19T02:00:52.467Z,11.39
2018-10-19T02:01:52.442Z,11.52
2018-10-19T02:02:52.454Z,11.44
2018-10-19T02:03:52.396Z,11.52
2018-10-19T02:04:52.410Z,11.46
2018-10-19T02:05:52.351Z,11.61
2018-10-19T02:06:52.326Z,11.56
2018-10-19T02:07:52.303Z,11.64
2018-10-19T02:08:52.281Z,11.59
2018-10-19T02:09:52.255Z,11.53
2018-10-19T02:10:52.276Z,11.56
2018-10-19T02:11:52.209Z,11.53
2018-10-19T02:12:52.187Z,11.49
2018-10-19T02:13:52.162Z,11.59
2018-10-19T02:14:52.139Z,11.67
2018-10-19T02:15:52.115Z,11.57
2018-10-19T02:16:52.144Z,11.67
2018-10-19T02:17:52.069Z,11.68
2018-10-19T02:18:52.044Z,11.67
2018-10-19T02:19:52.023Z,11.72
2018-10-19T02:20:52.060Z,11.64
2018-10-19T02:21:51.974Z,11.64
2018-10-19T02:22:53.456Z,11.62
2018-10-19T02:23:51.932Z,11.67
2018-10-19T02:24:51.904Z,11.67
2018-10-19T02:25:51.880Z,11.67
2018-10-19T02:26:51.858Z,11.65
2018-10-19T02:27:51.833Z,11.72
2018-10-19T02:28:52.564Z,11.72
2018-10-19T02:29:51.791Z,11.68
2018-10-19T02:30:51.765Z,11.74
2018-10-19T02:31:51.741Z,11.71
2018-10-19T02:32:51.715Z,11.78
2018-10-19T02:33:51.691Z,11.80
2018-10-19T02:34:51.675Z,11.82
2018-10-19T02:35:51.645Z,11.83
2018-10-19T02:36:51.623Z,11.85
2018-10-19T02:37:51.598Z,11.85
2018-10-19T02:38:51.576Z,11.83
2018-10-19T02:39:51.552Z,11.80
2018-10-19T02:40:51.528Z,11.77
2018-10-19T02:41:51.507Z,11.87
2018-10-19T02:42:51.480Z,11.85
2018-10-19T02:43:51.458Z,11.89
2018-10-19T02:44:51.434Z,11.80
2018-10-19T02:45:51.409Z,11.89
2018-10-19T02:46:51.386Z,11.89
2018-10-19T02:47:51.363Z,11.96
2018-10-19T02:48:51.339Z,11.89
2018-10-19T02:49:51.316Z,11.86
2018-10-19T02:50:51.293Z,11.80
2018-10-19T02:51:51.269Z,11.78
2018-10-19T02:52:51.249Z,11.68
2018-10-19T02:53:51.226Z,11.71
2018-10-19T02:54:51.202Z,11.72
2018-10-19T02:55:51.176Z,11.71
2018-10-19T02:56:51.152Z,11.71
2018-10-19T02:57:51.129Z,11.71
2018-10-19T02:58:51.112Z,11.72
2018-10-19T02:59:51.081Z,11.70
2018-10-19T03:00:51.058Z,11.75
2018-10-19T03:01:51.034Z,11.72
2018-10-19T03:02:51.011Z,11.72
2018-10-19T03:03:50.987Z,11.71
2018-10-19T03:04:50.964Z,11.74
2018-10-19T03:05:50.939Z,11.77
2018-10-19T03:06:50.916Z,11.71
2018-10-19T03:07:50.893Z,11.67
2018-10-19T03:08:50.869Z,11.72
2018-10-19T03:09:50.846Z,11.65
2018-10-19T03:10:50.821Z,11.68
2018-10-19T03:11:50.798Z,11.68
2018-10-19T03:12:50.774Z,11.61
2018-10-19T03:13:50.750Z,11.72
2018-10-19T03:14:50.727Z,11.67
2018-10-19T03:15:50.703Z,11.62
2018-10-19T03:16:50.681Z,11.77
2018-10-19T03:17:50.657Z,11.61
2018-10-19T03:18:50.634Z,11.62
2018-10-19T03:19:50.609Z,11.65
2018-10-19T03:20:50.586Z,11.67
2018-10-19T03:21:50.562Z,11.61
2018-10-19T03:22:50.538Z,11.68
2018-10-19T03:23:50.515Z,11.61
2018-10-19T03:24:50.491Z,11.61
2018-10-19T03:25:50.468Z,11.59
2018-10-19T03:26:50.444Z,11.61
2018-10-19T03:27:50.421Z,11.64
2018-10-19T03:28:50.396Z,11.70
2018-10-19T03:29:50.373Z,11.65
2018-10-19T03:30:50.369Z,11.64
2018-10-19T03:31:50.328Z,11.67
2018-10-19T03:32:50.303Z,11.62
2018-10-19T03:33:50.277Z,11.61
2018-10-19T03:34:50.259Z,11.61
2018-10-19T03:35:50.233Z,11.61
2018-10-19T03:36:50.207Z,11.64
2018-10-19T03:37:50.183Z,11.65
2018-10-19T03:38:50.161Z,11.59
2018-10-19T03:39:50.137Z,11.57
2018-10-19T03:40:50.118Z,11.53
2018-10-19T03:41:50.090Z,11.56
2018-10-19T03:42:50.067Z,11.67
2018-10-19T03:43:50.043Z,11.71
2018-10-19T03:44:50.020Z,11.59
2018-10-19T03:45:49.995Z,11.65
2018-10-19T03:46:50.721Z,11.68
2018-10-19T03:47:49.948Z,11.68
2018-10-19T03:48:49.937Z,11.57
2018-10-19T03:49:49.899Z,11.50
2018-10-19T03:50:49.878Z,11.57
2018-10-19T03:51:49.853Z,11.50
2018-10-19T03:52:49.832Z,11.54
2018-10-19T03:53:49.804Z,11.53
2018-10-19T03:54:49.788Z,11.46
2018-10-19T03:55:49.758Z,11.46
2018-10-19T03:56:49.735Z,11.50
2018-10-19T03:57:49.710Z,11.50
2018-10-19T03:58:49.686Z,11.38
2018-10-19T03:59:49.663Z,11.39
2018-10-19T04:00:49.640Z,11.29
2018-10-19T04:01:49.615Z,11.35
2018-10-19T04:02:49.595Z,11.36
2018-10-19T04:03:49.570Z,11.46
2018-10-19T04:04:49.611Z,11.28
2018-10-19T04:05:49.522Z,11.32
2018-10-19T04:06:49.498Z,11.31
2018-10-19T04:07:50.225Z,11.27
2018-10-19T04:08:49.455Z,11.27
2018-10-19T04:09:49.426Z,11.32
2018-10-19T04:10:49.404Z,11.25
2018-10-19T04:11:49.380Z,11.28
2018-10-19T04:12:49.356Z,11.28
2018-10-19T04:13:49.333Z,11.36
2018-10-19T04:14:49.309Z,11.24
2018-10-19T04:15:49.284Z,11.24
2018-10-19T04:16:49.260Z,11.24
2018-10-19T04:17:49.237Z,11.20
2018-10-19T04:18:49.214Z,11.20
2018-10-19T04:19:49.191Z,11.24
2018-10-19T04:20:49.168Z,11.14
2018-10-19T04:21:49.143Z,11.17
2018-10-19T04:22:49.118Z,11.17
2018-10-19T04:23:49.099Z,11.21
2018-10-19T04:24:49.072Z,11.24
2018-10-19T04:25:49.047Z,11.24
2018-10-19T04:26:49.023Z,11.17
2018-10-19T04:27:49.003Z,11.21
2018-10-19T04:28:48.981Z,11.16
2018-10-19T04:29:48.951Z,11.19
2018-10-19T04:30:48.931Z,11.17
2018-10-19T04:31:48.905Z,11.29
2018-10-19T04:32:48.881Z,11.20
2018-10-19T04:33:48.856Z,11.25
2018-10-19T04:34:48.833Z,11.28
2018-10-19T04:35:48.810Z,11.28
2018-10-19T04:36:48.786Z,11.38
2018-10-19T04:37:48.764Z,11.27
2018-10-19T04:38:48.740Z,11.29
2018-10-19T04:39:48.716Z,11.25
2018-10-19T04:40:48.691Z,11.20
2018-10-19T04:41:48.902Z,11.25
2018-10-19T04:42:48.648Z,11.24
2018-10-19T04:43:48.619Z,11.27
2018-10-19T04:44:48.596Z,11.29
2018-10-19T04:45:48.572Z,11.32
2018-10-19T04:46:48.548Z,11.28
2018-10-19T04:47:48.558Z,11.36
2018-10-19T04:48:48.507Z,11.31
2018-10-19T04:49:48.477Z,11.28
2018-10-19T04:50:48.453Z,11.32
2018-10-19T04:51:48.430Z,11.27
2018-10-19T04:52:48.406Z,11.36
2018-10-19T04:53:48.464Z,11.31
2018-10-19T04:54:48.361Z,11.29
2018-10-19T04:55:48.335Z,11.31
2018-10-19T04:56:48.314Z,11.29
2018-10-19T04:57:48.286Z,11.31
2018-10-19T04:58:48.264Z,11.27
2018-10-19T04:59:48.240Z,11.34
2018-10-19T05:00:48.217Z,11.35
2018-10-19T05:01:48.193Z,11.31
2018-10-19T05:02:48.241Z,11.24
2018-10-19T05:03:48.147Z,11.21
2018-10-19T05:04:48.218Z,11.21
2018-10-19T05:05:48.113Z,11.24
2018-10-19T05:06:48.203Z,11.17
2018-10-19T05:07:48.095Z,11.21
2018-10-19T05:08:48.027Z,11.13
2018-10-19T05:09:48.001Z,11.24
2018-10-19T05:10:47.978Z,11.17
2018-10-19T05:11:47.955Z,11.10
2018-10-19T05:12:47.966Z,11.02
2018-10-19T05:13:47.907Z,11.07
2018-10-19T05:14:47.885Z,10.99
2018-10-19T05:15:49.361Z,11.03
2018-10-19T05:16:47.836Z,11.01
2018-10-19T05:17:47.812Z,10.99
2018-10-19T05:18:47.796Z,11.01
2018-10-19T05:19:47.764Z,11.01
2018-10-19T05:20:47.741Z,10.95
2018-10-19T05:21:47.719Z,10.98
2018-10-19T05:22:47.694Z,10.92
2018-10-19T05:23:47.670Z,10.95
2018-10-19T05:24:47.678Z,10.95
2018-10-19T05:25:47.622Z,10.88
2018-10-19T05:26:47.599Z,10.84
2018-10-19T05:27:47.575Z,10.88
2018-10-19T05:28:47.552Z,10.78
2018-10-19T05:29:47.528Z,10.86
2018-10-19T05:30:47.505Z,10.86
2018-10-19T05:31:47.479Z,10.80
2018-10-19T05:32:47.461Z,10.77
2018-10-19T05:33:47.432Z,10.84
2018-10-19T05:34:47.412Z,10.94
2018-10-19T05:35:47.392Z,10.98
2018-10-19T05:36:47.361Z,10.96
2018-10-19T05:37:47.339Z,10.91
2018-10-19T05:38:47.315Z,10.94
2018-10-19T05:39:47.291Z,10.91
2018-10-19T05:40:47.266Z,10.92
2018-10-19T05:41:47.242Z,10.89
2018-10-19T05:42:47.219Z,10.78
2018-10-19T05:43:47.196Z,10.84
2018-10-19T05:44:47.174Z,10.86
2018-10-19T05:45:47.150Z,10.81
2018-10-19T05:46:47.126Z,10.78
2018-10-19T05:47:47.100Z,10.78
2018-10-19T05:48:47.077Z,10.81
2018-10-19T05:49:47.053Z,10.73
2018-10-19T05:50:47.029Z,10.80
2018-10-19T05:51:47.008Z,10.68
2018-10-19T05:52:46.981Z,10.66
2018-10-19T05:53:46.957Z,10.62
2018-10-19T05:54:46.933Z,10.70
2018-10-19T05:55:46.909Z,10.73
2018-10-19T05:56:46.886Z,10.63
2018-10-19T05:57:46.861Z,10.80
2018-10-19T05:58:46.839Z,10.98
2018-10-19T05:59:46.816Z,10.99
2018-10-19T06:00:46.792Z,10.92
2018-10-19T06:01:46.770Z,10.98
2018-10-19T06:02:46.744Z,11.06
2018-10-19T06:03:46.720Z,11.11
2018-10-19T06:04:46.696Z,11.19
2018-10-19T06:05:46.671Z,11.20
2018-10-19T06:06:46.648Z,11.27
2018-10-19T06:07:46.625Z,11.36
2018-10-19T06:08:46.602Z,11.28
2018-10-19T06:09:46.580Z,11.38
2018-10-19T06:10:46.555Z,11.44
2018-10-19T06:11:46.534Z,11.56
2018-10-19T06:12:46.513Z,11.62
2018-10-19T06:13:46.543Z,11.64
2018-10-19T06:14:46.462Z,11.68
2018-10-19T06:15:46.438Z,11.71
2018-10-19T06:16:46.414Z,11.68
2018-10-19T06:17:46.390Z,11.71
2018-10-19T06:18:46.366Z,11.71
2018-10-19T06:19:46.344Z,11.70
2018-10-19T06:20:46.321Z,11.83
2018-10-19T06:21:46.296Z,11.82
2018-10-19T06:22:46.274Z,11.90
2018-10-19T06:23:46.251Z,11.94
2018-10-19T06:24:46.980Z,11.93
2018-10-19T06:25:46.210Z,12.01
2018-10-19T06:26:46.182Z,12.08
2018-10-19T06:27:46.158Z,12.02
2018-10-19T06:28:46.136Z,12.08
2018-10-19T06:29:46.115Z,12.02
2018-10-19T06:30:46.091Z,12.05
2018-10-19T06:31:46.065Z,12.01
2018-10-19T06:32:46.047Z,12.02
2018-10-19T06:33:46.111Z,12.16
2018-10-19T06:34:45.996Z,12.09
2018-10-19T06:35:45.973Z,12.13
2018-10-19T06:36:45.950Z,12.19
2018-10-19T06:37:45.926Z,12.16
2018-10-19T06:38:45.904Z,12.29
2018-10-19T06:39:45.882Z,12.26
2018-10-19T06:40:45.971Z,12.13
2018-10-19T06:41:45.835Z,12.23
2018-10-19T06:42:45.812Z,12.24
2018-10-19T06:43:45.792Z,12.27
2018-10-19T06:44:45.766Z,12.24
2018-10-19T06:45:45.743Z,12.26
2018-10-19T06:46:45.797Z,12.33
2018-10-19T06:47:45.699Z,12.46
2018-10-19T06:48:45.676Z,12.49
2018-10-19T06:49:45.652Z,12.48
2018-10-19T06:50:45.629Z,12.45
2018-10-19T06:51:45.607Z,12.49
2018-10-19T06:52:45.584Z,12.48
2018-10-19T06:53:45.560Z,12.45
2018-10-19T06:54:45.537Z,12.49
2018-10-19T06:55:45.514Z,12.49
2018-10-19T06:56:45.492Z,12.77
2018-10-19T06:57:45.471Z,12.67
2018-10-19T06:58:45.469Z,12.69
2018-10-19T06:59:45.424Z,12.79
2018-10-19T07:00:45.401Z,12.64
2018-10-19T07:01:45.377Z,12.78
2018-10-19T07:02:45.355Z,12.82
2018-10-19T07:03:45.332Z,12.88
2018-10-19T07:04:45.310Z,12.85
2018-10-19T07:05:45.331Z,12.93
2018-10-19T07:06:45.264Z,12.93
2018-10-19T07:07:46.039Z,12.85
2018-10-19T07:08:45.219Z,12.69
2018-10-19T07:09:45.200Z,12.67
2018-10-19T07:10:45.175Z,12.70
2018-10-19T07:11:45.152Z,12.78
2018-10-19T07:12:45.130Z,12.99
2018-10-19T07:13:45.106Z,12.92
2018-10-19T07:14:45.083Z,12.88
2018-10-19T07:15:45.079Z,12.87
2018-10-19T07:16:45.039Z,12.79
2018-10-19T07:17:45.016Z,12.79
2018-10-19T07:18:44.993Z,12.81
2018-10-19T07:19:44.972Z,12.77
2018-10-19T07:20:44.950Z,12.82
2018-10-19T07:21:45.008Z,12.82
2018-10-19T07:22:44.907Z,12.93
2018-10-19T07:23:47.885Z,13.00
2018-10-19T07:24:44.860Z,12.93
2018-10-19T07:25:44.837Z,13.02
2018-10-19T07:26:44.814Z,12.93
2018-10-19T07:27:44.793Z,13.02
2018-10-19T07:28:44.770Z,13.07
2018-10-19T07:29:44.746Z,13.06
2018-10-19T07:30:44.724Z,13.11
2018-10-19T07:31:44.703Z,13.21
2018-10-19T07:32:44.680Z,13.17
2018-10-19T07:33:44.658Z,13.33
2018-10-19T07:34:44.635Z,13.32
2018-10-19T07:35:44.613Z,13.14
2018-10-19T07:36:44.590Z,12.97
2018-10-19T07:37:44.567Z,13.02
2018-10-19T07:38:44.549Z,13.02
2018-10-19T07:39:44.525Z,13.11
2018-10-19T07:40:44.502Z,13.12
2018-10-19T07:41:44.479Z,13.07
2018-10-19T07:42:44.460Z,13.20
2018-10-19T07:43:44.435Z,13.27
2018-10-19T07:44:44.412Z,13.29
2018-10-19T07:45:44.391Z,13.43
2018-10-19T07:46:44.367Z,13.47
2018-10-19T07:47:44.456Z,13.59
2018-10-19T07:48:44.324Z,13.63
2018-10-19T07:49:44.301Z,13.58
2018-10-19T07:50:44.279Z,13.62
2018-10-19T07:51:44.257Z,13.59
2018-10-19T07:52:44.235Z,13.14
2018-10-19T07:53:44.217Z,13.12
2018-10-19T07:54:44.191Z,13.09
2018-10-19T07:55:44.169Z,13.12
2018-10-19T07:56:44.148Z,13.18
2018-10-19T07:57:44.126Z,13.24
2018-10-19T07:58:44.103Z,13.32
2018-10-19T07:59:44.082Z,13.38
2018-10-19T08:00:44.120Z,13.40
2018-10-19T08:01:44.037Z,13.38
2018-10-19T08:02:44.016Z,13.37
2018-10-19T08:03:43.994Z,13.33
2018-10-19T08:04:43.973Z,13.33
2018-10-19T08:05:43.953Z,13.30
2018-10-19T08:06:43.929Z,13.36
2018-10-19T08:07:46.159Z,13.29
2018-10-19T08:08:43.886Z,13.25
2018-10-19T08:09:43.863Z,13.25
2018-10-19T08:10:43.842Z,13.37
2018-10-19T08:11:43.824Z,13.25
2018-10-19T08:12:43.798Z,13.36
2018-10-19T08:13:44.527Z,13.41
2018-10-19T08:14:43.756Z,13.30
2018-10-19T08:15:43.736Z,13.29
2018-10-19T08:16:43.710Z,13.20
2018-10-19T08:17:43.689Z,13.32
2018-10-19T08:18:43.666Z,13.21
2018-10-19T08:19:43.646Z,13.38
2018-10-19T08:20:43.623Z,13.29
2018-10-19T08:21:43.600Z,13.29
2018-10-19T08:22:43.580Z,13.15
2018-10-19T08:23:43.557Z,13.24
2018-10-19T08:24:43.537Z,13.52
2018-10-19T08:25:43.515Z,13.49
2018-10-19T08:26:43.493Z,13.61
2018-10-19T08:27:43.471Z,13.41
2018-10-19T08:28:43.450Z,13.43
2018-10-19T08:29:43.426Z,13.40
2018-10-19T08:30:43.405Z,13.40
2018-10-19T08:31:43.385Z,13.11
2018-10-19T08:32:43.362Z,13.03
2018-10-19T08:33:43.341Z,12.99
2018-10-19T08:34:43.319Z,12.96
2018-10-19T08:35:43.298Z,13.00
2018-10-19T08:36:43.275Z,12.97
2018-10-19T08:37:43.257Z,13.15
2018-10-19T08:38:43.233Z,13.22
2018-10-19T08:39:43.210Z,13.09
2018-10-19T08:40:43.190Z,13.18
2018-10-19T08:41:43.266Z,13.14
2018-10-19T08:42:43.146Z,13.27
2018-10-19T08:43:43.124Z,13.29
2018-10-19T08:44:43.101Z,13.32
2018-10-19T08:45:43.078Z,13.36
2018-10-19T08:46:43.057Z,13.24
2018-10-19T08:47:43.126Z,13.25
2018-10-19T08:48:43.016Z,13.30
2018-10-19T08:49:42.994Z,13.32
2018-10-19T08:50:42.972Z,13.21
2018-10-19T08:51:42.950Z,13.25
2018-10-19T08:52:42.931Z,13.24
2018-10-19T08:53:42.909Z,13.36
2018-10-19T08:54:42.980Z,13.49
2018-10-19T08:55:42.862Z,13.47
2018-10-19T08:56:42.841Z,13.49
2018-10-19T08:57:42.886Z,13.49
2018-10-19T08:58:42.799Z,13.56
2018-10-19T08:59:42.775Z,13.63
2018-10-19T09:00:42.753Z,13.58
2018-10-19T09:01:42.731Z,13.63
2018-10-19T09:02:42.710Z,13.52
2018-10-19T09:03:42.693Z,13.61
2018-10-19T09:04:42.668Z,13.49
2018-10-19T09:05:42.645Z,13.51
2018-10-19T09:06:42.623Z,13.58
2018-10-19T09:07:42.601Z,13.65
2018-10-19T09:08:42.580Z,13.74
2018-10-19T09:09:42.561Z,13.69
2018-10-19T09:10:42.566Z,13.69
2018-10-19T09:11:42.613Z,13.83
2018-10-19T09:12:42.597Z,13.80
2018-10-19T09:13:42.471Z,13.73
2018-10-19T09:14:42.451Z,13.63
2018-10-19T09:15:42.429Z,13.71
2018-10-19T09:16:42.408Z,13.63
2018-10-19T09:17:42.386Z,13.63
2018-10-19T09:18:42.467Z,13.69
2018-10-19T09:19:42.343Z,13.79
2018-10-19T09:20:42.321Z,13.73
2018-10-19T09:21:42.301Z,13.83
2018-10-19T09:22:42.280Z,13.74
2018-10-19T09:23:42.257Z,13.63
2018-10-19T09:24:42.235Z,13.63
2018-10-19T09:25:42.215Z,13.55
2018-10-19T09:26:42.192Z,13.70
2018-10-19T09:27:42.173Z,13.71
2018-10-19T09:28:42.150Z,13.81
2018-10-19T09:29:42.128Z,13.74
2018-10-19T09:30:42.107Z,13.73
2018-10-19T09:31:42.086Z,13.88
2018-10-19T09:32:42.066Z,13.87
2018-10-19T09:33:42.044Z,13.94
2018-10-19T09:34:42.022Z,14.07
2018-10-19T09:35:42.049Z,14.07
2018-10-19T09:36:42.077Z,14.16
2018-10-19T09:37:44.963Z,14.24
2018-10-19T09:38:41.937Z,14.29
2018-10-19T09:39:41.915Z,14.34
2018-10-19T09:40:41.896Z,14.31
2018-10-19T09:41:41.873Z,14.39
2018-10-19T09:42:41.852Z,14.47
2018-10-19T09:43:41.833Z,14.46
2018-10-19T09:44:41.811Z,14.43
2018-10-19T09:45:41.796Z,14.28
2018-10-19T09:46:41.768Z,14.39
2018-10-19T09:47:41.820Z,14.25
2018-10-19T09:48:41.726Z,14.12
2018-10-19T09:49:41.712Z,14.09
2018-10-19T09:50:41.686Z,14.04
2018-10-19T09:51:41.663Z,13.96
2018-10-19T09:52:41.642Z,14.10
2018-10-19T09:53:41.621Z,13.89
2018-10-19T09:54:41.601Z,13.89
2018-10-19T09:55:41.579Z,13.99
2018-10-19T09:56:41.559Z,13.98
2018-10-19T09:57:41.537Z,14.16
2018-10-19T09:58:41.516Z,14.10
2018-10-19T09:59:41.496Z,14.16
2018-10-19T10:00:41.474Z,13.94
2018-10-19T10:01:41.453Z,13.98
2018-10-19T10:02:41.436Z,13.89
2018-10-19T10:03:41.411Z,13.83
2018-10-19T10:04:41.392Z,13.99
2018-10-19T10:05:41.369Z,14.02
2018-10-19T10:06:41.349Z,14.01
2018-10-19T10:07:41.358Z,14.09
2018-10-19T10:08:41.306Z,13.98
2018-10-19T10:09:41.285Z,13.98
2018-10-19T10:10:41.265Z,14.17
2018-10-19T10:11:41.248Z,14.13
2018-10-19T10:12:41.223Z,14.19
2018-10-19T10:13:41.207Z,14.16
2018-10-19T10:14:41.192Z,14.17
2018-10-19T10:15:41.253Z,13.98
2018-10-19T10:16:41.140Z,13.89
2018-10-19T10:17:41.119Z,13.88
2018-10-19T10:18:41.098Z,13.79
2018-10-19T10:19:41.078Z,13.87
2018-10-19T10:20:41.058Z,13.98
2018-10-19T10:21:41.039Z,14.10
2018-10-19T10:22:41.018Z,14.21
2018-10-19T10:23:40.995Z,14.37
2018-10-19T10:24:40.982Z,14.44
2018-10-19T10:25:40.953Z,14.50
2018-10-19T10:26:40.931Z,14.32
2018-10-19T10:27:40.912Z,14.37
2018-10-19T10:28:40.890Z,14.34
2018-10-19T10:29:40.896Z,14.60
2018-10-19T10:30:40.847Z,14.91
2018-10-19T10:31:40.827Z,14.84
2018-10-19T10:32:40.808Z,14.78
2018-10-19T10:33:40.790Z,14.88
2018-10-19T10:34:40.768Z,14.83
2018-10-19T10:35:40.746Z,14.90
2018-10-19T10:36:40.726Z,14.83
2018-10-19T10:37:40.703Z,14.75
2018-10-19T10:38:40.753Z,14.75
2018-10-19T10:39:40.663Z,14.72
2018-10-19T10:40:40.644Z,14.95
2018-10-19T10:41:40.622Z,15.11
2018-10-19T10:42:40.602Z,15.24
2018-10-19T10:43:40.581Z,15.28
2018-10-19T10:44:40.561Z,15.05
2018-10-19T10:45:40.540Z,14.91
2018-10-19T10:46:40.520Z,14.88
2018-10-19T10:47:40.502Z,15.20
2018-10-19T10:48:40.482Z,15.21
2018-10-19T10:49:40.459Z,15.28
2018-10-19T10:50:40.440Z,15.33
2018-10-19T10:51:40.419Z,15.45
2018-10-19T10:52:40.399Z,15.59
2018-10-19T10:53:40.379Z,15.30
2018-10-19T10:54:40.359Z,14.94
2018-10-19T10:55:40.339Z,14.81
2018-10-19T10:56:40.319Z,14.61
2018-10-19T10:57:40.298Z,14.72
2018-10-19T10:58:40.278Z,14.78
2018-10-19T10:59:40.260Z,14.81
2018-10-19T11:00:40.240Z,14.98
2018-10-19T11:01:40.219Z,15.26
2018-10-19T11:02:40.201Z,15.30
2018-10-19T11:03:40.179Z,15.48
2018-10-19T11:04:40.161Z,15.45
2018-10-19T11:05:40.140Z,15.43
2018-10-19T11:06:40.121Z,15.75
2018-10-19T11:07:41.657Z,15.60
2018-10-19T11:08:40.081Z,15.72
2018-10-19T11:09:40.059Z,15.61
2018-10-19T11:10:40.040Z,15.52
2018-10-19T11:11:40.022Z,15.28
2018-10-19T11:12:40.001Z,15.24
2018-10-19T11:13:39.981Z,15.33
2018-10-19T11:14:39.961Z,15.30
2018-10-19T11:15:39.942Z,15.27
2018-10-19T11:16:39.925Z,15.09
2018-10-19T11:17:39.908Z,15.11
2018-10-19T11:18:39.883Z,15.33
2018-10-19T11:19:39.864Z,15.30
2018-10-19T11:20:39.847Z,15.30
2018-10-19T11:21:39.824Z,15.09
2018-10-19T11:22:39.806Z,15.11
2018-10-19T11:23:39.786Z,15.33
2018-10-19T11:24:39.769Z,15.38
2018-10-19T11:25:39.749Z,15.26
2018-10-19T11:26:39.727Z,15.38
2018-10-19T11:27:39.708Z,15.49
2018-10-19T11:28:39.689Z,15.54
2018-10-19T11:29:41.169Z,15.49
2018-10-19T11:30:39.817Z,15.56
2018-10-19T11:31:39.628Z,15.56
2018-10-19T11:32:39.610Z,15.52
2018-10-19T11:33:39.589Z,15.76
2018-10-19T11:34:39.570Z,15.81
2018-10-19T11:35:39.550Z,15.89
2018-10-19T11:36:39.539Z,16.03
2018-10-19T11:37:39.558Z,15.60
2018-10-19T11:38:39.491Z,15.54
2018-10-19T11:39:39.473Z,15.75
2018-10-19T11:40:39.453Z,15.96
2018-10-19T11:41:39.433Z,16.04
2018-10-19T11:42:39.415Z,16.16
2018-10-19T11:43:39.397Z,16.26
2018-10-19T11:44:39.378Z,16.22
2018-10-19T11:45:39.356Z,15.79
2018-10-19T11:46:39.394Z,15.59
2018-10-19T11:47:39.319Z,15.54
2018-10-19T11:48:39.357Z,15.54
2018-10-19T11:49:39.279Z,15.49
2018-10-19T11:50:39.259Z,15.30
2018-10-19T11:51:39.258Z,15.30
2018-10-19T11:52:39.221Z,15.36
2018-10-19T11:53:39.201Z,15.49
2018-10-19T11:54:39.184Z,15.56
2018-10-19T11:55:39.162Z,15.60
2018-10-19T11:56:39.147Z,15.70
2018-10-19T11:57:39.123Z,15.81
2018-10-19T11:58:39.105Z,15.82
2018-10-19T11:59:39.085Z,15.97
2018-10-19T12:00:39.064Z,15.74
2018-10-19T12:01:39.047Z,15.72
2018-10-19T12:02:39.024Z,15.85
2018-10-19T12:03:39.124Z,15.92
2018-10-19T12:04:38.985Z,15.85
2018-10-19T12:05:38.967Z,15.84
2018-10-19T12:06:38.949Z,15.93
2018-10-19T12:07:38.926Z,15.94
2018-10-19T12:08:38.907Z,15.99
2018-10-19T12:09:38.889Z,16.06
2018-10-19T12:10:38.896Z,16.00
2018-10-19T12:11:38.849Z,16.01
2018-10-19T12:12:38.828Z,16.20
2018-10-19T12:13:38.811Z,16.26
2018-10-19T12:14:38.786Z,16.33
2018-10-19T12:15:38.768Z,16.18
2018-10-19T12:16:38.916Z,15.96
2018-10-19T12:17:38.728Z,16.18
2018-10-19T12:18:38.708Z,16.20
2018-10-19T12:19:38.690Z,16.22
2018-10-19T12:20:38.704Z,16.12
2018-10-19T12:21:38.647Z,15.93
2018-10-19T12:22:38.628Z,16.06
2018-10-19T12:23:38.608Z,16.03
2018-10-19T12:24:38.588Z,16.01
2018-10-19T12:25:38.569Z,15.94
2018-10-19T12:26:38.550Z,15.94
2018-10-19T12:27:38.530Z,16.06
2018-10-19T12:28:38.508Z,16.20
2018-10-19T12:29:38.488Z,16.26
2018-10-19T12:30:38.469Z,16.15
2018-10-19T12:31:38.455Z,16.26
2018-10-19T12:32:38.428Z,16.20
2018-10-19T12:33:38.407Z,16.03
2018-10-19T12:34:38.388Z,16.14
2018-10-19T12:35:38.471Z,16.26
2018-10-19T12:36:38.347Z,16.27
2018-10-19T12:37:38.331Z,16.30
2018-10-19T12:38:38.306Z,16.30
2018-10-19T12:39:38.285Z,16.26
2018-10-19T12:40:38.266Z,16.00
2018-10-19T12:41:38.245Z,16.00
2018-10-19T12:42:38.225Z,16.00
2018-10-19T12:43:38.206Z,16.06
2018-10-19T12:44:38.185Z,16.11
2018-10-19T12:45:38.163Z,16.14
2018-10-19T12:46:38.143Z,16.09
2018-10-19T12:47:38.123Z,16.12
2018-10-19T12:48:38.104Z,16.15
2018-10-19T12:49:38.081Z,16.16
2018-10-19T12:50:38.062Z,16.31
2018-10-19T12:51:38.047Z,16.34
2018-10-19T12:52:38.024Z,16.42